sensor_id;sensor_type;location;lat;lon;timestamp;P1;durP1;ratioP1;P2;durP2;ratioP2
38994;SDS011;24769;18.712;99.000;2024-02-21T00:01:24;52.40;;;45.40;;
38994;SDS011;24769;18.712;99.000;2024-02-21T00:03:51;51.40;;;43.40;;
38994;SDS011;24769;18.712;99.000;2024-02-21T00:06:17;53.80;;;46.00;;
38994;SDS011;24769;18.712;99.000;2024-02-21T00:08:44;50.40;;;43.60;;
38994;SDS011;24769;18.712;99.000;2024-02-21T00:11:10;51.80;;;43.80;;
38994;SDS011;24769;18.712;99.000;2024-02-21T00:13:37;54.60;;;46.60;;
38994;SDS011;24769;18.712;99.000;2024-02-21T00:16:03;48.40;;;41.40;;
38994;SDS011;24769;18.712;99.000;2024-02-21T00:18:30;57.80;;;48.60;;
38994;SDS011;24769;18.712;99.000;2024-02-21T00:20:57;51.60;;;43.60;;
38994;SDS011;24769;18.712;99.000;2024-02-21T00:23:23;53.40;;;45.80;;
38994;SDS011;24769;18.712;99.000;2024-02-21T00:25:50;52.80;;;45.00;;
38994;SDS011;24769;18.712;99.000;2024-02-21T00:28:16;54.20;;;46.20;;
38994;SDS011;24769;18.712;99.000;2024-02-21T00:30:43;55.80;;;47.80;;
38994;SDS011;24769;18.712;99.000;2024-02-21T00:33:10;61.00;;;51.20;;
38994;SDS011;24769;18.712;99.000;2024-02-21T00:35:40;59.00;;;48.20;;
38994;SDS011;24769;18.712;99.000;2024-02-21T00:38:06;53.60;;;45.80;;
38994;SDS011;24769;18.712;99.000;2024-02-21T00:40:33;61.80;;;51.00;;
38994;SDS011;24769;18.712;99.000;2024-02-21T00:43:01;52.60;;;44.00;;
38994;SDS011;24769;18.712;99.000;2024-02-21T00:45:28;61.20;;;50.80;;
38994;SDS011;24769;18.712;99.000;2024-02-21T00:47:54;60.60;;;49.80;;
38994;SDS011;24769;18.712;99.000;2024-02-21T00:50:21;58.00;;;48.20;;
38994;SDS011;24769;18.712;99.000;2024-02-21T00:52:47;56.60;;;48.00;;
38994;SDS011;24769;18.712;99.000;2024-02-21T00:55:14;55.40;;;46.40;;
38994;SDS011;24769;18.712;99.000;2024-02-21T00:57:41;54.00;;;45.60;;
38994;SDS011;24769;18.712;99.000;2024-02-21T01:00:07;56.60;;;47.60;;
38994;SDS011;24769;18.712;99.000;2024-02-21T01:02:34;50.60;;;43.00;;
38994;SDS011;24769;18.712;99.000;2024-02-21T01:05:01;50.00;;;43.00;;
38994;SDS011;24769;18.712;99.000;2024-02-21T01:07:28;52.00;;;44.40;;
38994;SDS011;24769;18.712;99.000;2024-02-21T01:09:54;45.00;;;38.80;;
38994;SDS011;24769;18.712;99.000;2024-02-21T01:12:21;38.40;;;34.80;;
38994;SDS011;24769;18.712;99.000;2024-02-21T01:14:48;38.50;;;34.50;;
38994;SDS011;24769;18.712;99.000;2024-02-21T01:17:15;31.75;;;30.75;;
38994;SDS011;24769;18.712;99.000;2024-02-21T01:19:41;33.25;;;31.75;;
38994;SDS011;24769;18.712;99.000;2024-02-21T01:22:08;36.75;;;33.50;;
38994;SDS011;24769;18.712;99.000;2024-02-21T01:24:35;38.25;;;34.50;;
38994;SDS011;24769;18.712;99.000;2024-02-21T01:27:01;39.75;;;35.25;;
38994;SDS011;24769;18.712;99.000;2024-02-21T01:29:28;36.75;;;34.50;;
38994;SDS011;24769;18.712;99.000;2024-02-21T01:31:55;40.00;;;36.25;;
38994;SDS011;24769;18.712;99.000;2024-02-21T01:34:21;38.75;;;35.50;;
38994;SDS011;24769;18.712;99.000;2024-02-21T01:36:48;36.75;;;35.00;;
38994;SDS011;24769;18.712;99.000;2024-02-21T01:39:15;38.25;;;35.50;;
38994;SDS011;24769;18.712;99.000;2024-02-21T01:41:41;32.75;;;32.50;;
38994;SDS011;24769;18.712;99.000;2024-02-21T01:44:08;39.75;;;35.50;;
38994;SDS011;24769;18.712;99.000;2024-02-21T01:46:35;39.50;;;36.25;;
38994;SDS011;24769;18.712;99.000;2024-02-21T01:49:02;37.50;;;34.50;;
38994;SDS011;24769;18.712;99.000;2024-02-21T01:51:30;33.50;;;32.25;;
38994;SDS011;24769;18.712;99.000;2024-02-21T01:53:57;34.75;;;33.00;;
38994;SDS011;24769;18.712;99.000;2024-02-21T01:56:24;37.50;;;34.25;;
38994;SDS011;24769;18.712;99.000;2024-02-21T01:58:51;33.50;;;32.50;;
38994;SDS011;24769;18.712;99.000;2024-02-21T02:01:18;37.00;;;34.50;;
38994;SDS011;24769;18.712;99.000;2024-02-21T02:03:45;33.50;;;32.50;;
38994;SDS011;24769;18.712;99.000;2024-02-21T02:06:12;35.25;;;33.50;;
38994;SDS011;24769;18.712;99.000;2024-02-21T02:08:40;32.00;;;31.50;;
38994;SDS011;24769;18.712;99.000;2024-02-21T02:11:06;31.75;;;30.75;;
38994;SDS011;24769;18.712;99.000;2024-02-21T02:13:33;33.25;;;32.25;;
38994;SDS011;24769;18.712;99.000;2024-02-21T02:16:00;32.50;;;31.25;;
38994;SDS011;24769;18.712;99.000;2024-02-21T02:18:26;36.25;;;34.00;;
38994;SDS011;24769;18.712;99.000;2024-02-21T02:20:53;18.25;;;18.25;;
38994;SDS011;24769;18.712;99.000;2024-02-21T02:25:56;30.25;;;29.75;;
38994;SDS011;24769;18.712;99.000;2024-02-21T02:28:23;34.25;;;32.75;;
38994;SDS011;24769;18.712;99.000;2024-02-21T02:30:50;30.20;;;30.00;;
38994;SDS011;24769;18.712;99.000;2024-02-21T02:33:17;28.50;;;28.50;;
38994;SDS011;24769;18.712;99.000;2024-02-21T02:35:44;29.60;;;29.60;;
38994;SDS011;24769;18.712;99.000;2024-02-21T02:38:11;26.80;;;26.80;;
38994;SDS011;24769;18.712;99.000;2024-02-21T02:40:38;29.80;;;29.60;;
38994;SDS011;24769;18.712;99.000;2024-02-21T02:43:06;30.40;;;30.20;;
38994;SDS011;24769;18.712;99.000;2024-02-21T02:45:33;32.20;;;31.20;;
38994;SDS011;24769;18.712;99.000;2024-02-21T02:48:00;33.00;;;31.00;;
38994;SDS011;24769;18.712;99.000;2024-02-21T02:50:27;31.80;;;31.00;;
38994;SDS011;24769;18.712;99.000;2024-02-21T02:52:54;29.60;;;28.80;;
38994;SDS011;24769;18.712;99.000;2024-02-21T02:55:21;33.00;;;31.80;;
38994;SDS011;24769;18.712;99.000;2024-02-21T02:57:47;32.40;;;31.40;;
38994;SDS011;24769;18.712;99.000;2024-02-21T03:00:14;32.60;;;30.60;;
38994;SDS011;24769;18.712;99.000;2024-02-21T03:02:42;31.20;;;30.40;;
38994;SDS011;24769;18.712;99.000;2024-02-21T03:07:40;27.00;;;27.00;;
38994;SDS011;24769;18.712;99.000;2024-02-21T03:10:07;35.60;;;33.20;;
38994;SDS011;24769;18.712;99.000;2024-02-21T03:12:35;30.00;;;29.80;;
38994;SDS011;24769;18.712;99.000;2024-02-21T03:15:02;30.00;;;30.00;;
38994;SDS011;24769;18.712;99.000;2024-02-21T03:17:30;34.60;;;32.80;;
38994;SDS011;24769;18.712;99.000;2024-02-21T03:19:58;33.60;;;32.20;;
38994;SDS011;24769;18.712;99.000;2024-02-21T03:22:25;31.00;;;30.20;;
38994;SDS011;24769;18.712;99.000;2024-02-21T03:24:52;36.40;;;33.40;;
38994;SDS011;24769;18.712;99.000;2024-02-21T03:27:18;36.20;;;32.60;;
38994;SDS011;24769;18.712;99.000;2024-02-21T03:29:45;39.40;;;35.20;;
38994;SDS011;24769;18.712;99.000;2024-02-21T03:32:12;33.80;;;32.00;;
38994;SDS011;24769;18.712;99.000;2024-02-21T03:34:38;37.80;;;34.40;;
38994;SDS011;24769;18.712;99.000;2024-02-21T03:37:05;42.00;;;37.00;;
38994;SDS011;24769;18.712;99.000;2024-02-21T03:39:31;39.80;;;35.60;;
38994;SDS011;24769;18.712;99.000;2024-02-21T03:41:58;38.80;;;35.00;;
38994;SDS011;24769;18.712;99.000;2024-02-21T03:44:30;47.40;;;40.20;;
38994;SDS011;24769;18.712;99.000;2024-02-21T03:46:57;43.80;;;38.00;;
38994;SDS011;24769;18.712;99.000;2024-02-21T03:49:24;41.80;;;36.40;;
38994;SDS011;24769;18.712;99.000;2024-02-21T03:51:51;30.00;;;29.80;;
38994;SDS011;24769;18.712;99.000;2024-02-21T03:54:18;43.60;;;37.60;;
38994;SDS011;24769;18.712;99.000;2024-02-21T03:56:45;45.20;;;39.00;;
38994;SDS011;24769;18.712;99.000;2024-02-21T03:59:15;44.60;;;38.60;;
38994;SDS011;24769;18.712;99.000;2024-02-21T04:01:41;55.00;;;45.60;;
38994;SDS011;24769;18.712;99.000;2024-02-21T04:04:09;43.40;;;38.00;;
38994;SDS011;24769;18.712;99.000;2024-02-21T04:06:36;47.40;;;40.80;;
38994;SDS011;24769;18.712;99.000;2024-02-21T04:09:03;45.40;;;39.00;;
38994;SDS011;24769;18.712;99.000;2024-02-21T04:11:29;45.00;;;39.00;;
38994;SDS011;24769;18.712;99.000;2024-02-21T04:13:56;42.80;;;37.80;;
38994;SDS011;24769;18.712;99.000;2024-02-21T04:19:14;45.80;;;39.40;;
38994;SDS011;24769;18.712;99.000;2024-02-21T04:21:41;42.20;;;37.20;;
38994;SDS011;24769;18.712;99.000;2024-02-21T04:24:07;36.00;;;33.20;;
38994;SDS011;24769;18.712;99.000;2024-02-21T04:26:34;36.80;;;33.80;;
38994;SDS011;24769;18.712;99.000;2024-02-21T04:29:00;39.80;;;35.40;;
38994;SDS011;24769;18.712;99.000;2024-02-21T04:31:27;38.00;;;34.80;;
38994;SDS011;24769;18.712;99.000;2024-02-21T04:33:56;38.20;;;35.00;;
38994;SDS011;24769;18.712;99.000;2024-02-21T04:36:23;39.40;;;35.00;;
38994;SDS011;24769;18.712;99.000;2024-02-21T04:38:49;42.00;;;37.00;;
38994;SDS011;24769;18.712;99.000;2024-02-21T04:41:16;34.00;;;32.00;;
38994;SDS011;24769;18.712;99.000;2024-02-21T04:43:42;40.80;;;36.20;;
38994;SDS011;24769;18.712;99.000;2024-02-21T04:46:11;40.60;;;36.20;;
38994;SDS011;24769;18.712;99.000;2024-02-21T04:48:37;44.20;;;37.60;;
38994;SDS011;24769;18.712;99.000;2024-02-21T04:51:04;36.00;;;33.00;;
38994;SDS011;24769;18.712;99.000;2024-02-21T04:53:31;32.80;;;31.60;;
38994;SDS011;24769;18.712;99.000;2024-02-21T04:55:57;38.40;;;34.80;;
38994;SDS011;24769;18.712;99.000;2024-02-21T04:58:24;33.60;;;32.00;;
38994;SDS011;24769;18.712;99.000;2024-02-21T05:00:51;35.20;;;32.80;;
38994;SDS011;24769;18.712;99.000;2024-02-21T05:03:18;34.40;;;31.40;;
38994;SDS011;24769;18.712;99.000;2024-02-21T05:05:45;30.60;;;29.80;;
38994;SDS011;24769;18.712;99.000;2024-02-21T05:08:12;31.60;;;30.60;;
38994;SDS011;24769;18.712;99.000;2024-02-21T05:10:38;33.80;;;32.00;;
38994;SDS011;24769;18.712;99.000;2024-02-21T05:13:05;33.00;;;31.00;;
38994;SDS011;24769;18.712;99.000;2024-02-21T05:15:31;38.20;;;34.80;;
38994;SDS011;24769;18.712;99.000;2024-02-21T05:17:58;37.00;;;34.00;;
38994;SDS011;24769;18.712;99.000;2024-02-21T05:20:25;32.80;;;31.20;;
38994;SDS011;24769;18.712;99.000;2024-02-21T05:22:51;33.60;;;31.40;;
38994;SDS011;24769;18.712;99.000;2024-02-21T05:25:18;30.60;;;29.60;;
38994;SDS011;24769;18.712;99.000;2024-02-21T05:27:45;31.20;;;30.20;;
38994;SDS011;24769;18.712;99.000;2024-02-21T05:30:11;33.60;;;31.60;;
38994;SDS011;24769;18.712;99.000;2024-02-21T05:32:38;28.20;;;28.20;;
38994;SDS011;24769;18.712;99.000;2024-02-21T05:35:05;30.60;;;29.60;;
38994;SDS011;24769;18.712;99.000;2024-02-21T05:37:32;29.60;;;29.00;;
38994;SDS011;24769;18.712;99.000;2024-02-21T05:39:58;27.40;;;27.40;;
38994;SDS011;24769;18.712;99.000;2024-02-21T05:42:25;27.40;;;27.40;;
38994;SDS011;24769;18.712;99.000;2024-02-21T05:44:51;31.60;;;30.20;;
38994;SDS011;24769;18.712;99.000;2024-02-21T05:47:18;25.40;;;25.40;;
38994;SDS011;24769;18.712;99.000;2024-02-21T05:49:45;28.80;;;28.60;;
38994;SDS011;24769;18.712;99.000;2024-02-21T05:52:12;32.40;;;31.00;;
38994;SDS011;24769;18.712;99.000;2024-02-21T05:54:39;32.40;;;31.00;;
38994;SDS011;24769;18.712;99.000;2024-02-21T05:57:07;28.60;;;28.40;;
38994;SDS011;24769;18.712;99.000;2024-02-21T05:59:34;25.80;;;24.80;;
38994;SDS011;24769;18.712;99.000;2024-02-21T06:02:05;27.00;;;27.00;;
38994;SDS011;24769;18.712;99.000;2024-02-21T06:04:32;24.00;;;24.00;;
38994;SDS011;24769;18.712;99.000;2024-02-21T06:06:58;19.00;;;19.00;;
38994;SDS011;24769;18.712;99.000;2024-02-21T06:09:25;24.80;;;24.00;;
38994;SDS011;24769;18.712;99.000;2024-02-21T06:11:52;21.60;;;21.60;;
38994;SDS011;24769;18.712;99.000;2024-02-21T06:14:19;25.40;;;25.40;;
38994;SDS011;24769;18.712;99.000;2024-02-21T06:16:46;19.80;;;19.80;;
38994;SDS011;24769;18.712;99.000;2024-02-21T06:19:12;24.60;;;24.60;;
38994;SDS011;24769;18.712;99.000;2024-02-21T06:21:39;25.20;;;25.20;;
38994;SDS011;24769;18.712;99.000;2024-02-21T06:24:06;23.20;;;22.80;;
38994;SDS011;24769;18.712;99.000;2024-02-21T06:26:32;16.60;;;16.60;;
38994;SDS011;24769;18.712;99.000;2024-02-21T06:28:59;21.80;;;21.80;;
38994;SDS011;24769;18.712;99.000;2024-02-21T06:31:27;21.80;;;21.80;;
38994;SDS011;24769;18.712;99.000;2024-02-21T06:33:54;21.00;;;21.00;;
38994;SDS011;24769;18.712;99.000;2024-02-21T06:36:21;22.80;;;21.20;;
38994;SDS011;24769;18.712;99.000;2024-02-21T06:38:48;21.40;;;21.40;;
38994;SDS011;24769;18.712;99.000;2024-02-21T06:41:15;24.20;;;23.60;;
38994;SDS011;24769;18.712;99.000;2024-02-21T06:43:47;22.60;;;21.80;;
38994;SDS011;24769;18.712;99.000;2024-02-21T06:46:23;19.40;;;19.40;;
38994;SDS011;24769;18.712;99.000;2024-02-21T06:48:51;20.40;;;20.40;;
38994;SDS011;24769;18.712;99.000;2024-02-21T06:51:18;21.20;;;21.20;;
38994;SDS011;24769;18.712;99.000;2024-02-21T06:53:45;20.40;;;20.40;;
38994;SDS011;24769;18.712;99.000;2024-02-21T06:56:12;21.60;;;21.60;;
38994;SDS011;24769;18.712;99.000;2024-02-21T06:58:38;22.40;;;22.40;;
38994;SDS011;24769;18.712;99.000;2024-02-21T07:01:06;22.20;;;22.20;;
38994;SDS011;24769;18.712;99.000;2024-02-21T07:03:34;22.20;;;22.20;;
38994;SDS011;24769;18.712;99.000;2024-02-21T07:06:00;25.40;;;24.80;;
38994;SDS011;24769;18.712;99.000;2024-02-21T07:08:29;28.00;;;28.00;;
38994;SDS011;24769;18.712;99.000;2024-02-21T07:10:56;23.00;;;23.00;;
38994;SDS011;24769;18.712;99.000;2024-02-21T07:13:22;20.20;;;20.20;;
38994;SDS011;24769;18.712;99.000;2024-02-21T07:15:49;24.60;;;24.60;;
38994;SDS011;24769;18.712;99.000;2024-02-21T07:18:16;28.00;;;28.00;;
38994;SDS011;24769;18.712;99.000;2024-02-21T07:20:42;31.00;;;30.00;;
38994;SDS011;24769;18.712;99.000;2024-02-21T07:23:09;29.00;;;28.80;;
38994;SDS011;24769;18.712;99.000;2024-02-21T07:25:36;30.80;;;29.80;;
38994;SDS011;24769;18.712;99.000;2024-02-21T07:28:03;35.00;;;32.40;;
38994;SDS011;24769;18.712;99.000;2024-02-21T07:30:30;37.00;;;34.00;;
38994;SDS011;24769;18.712;99.000;2024-02-21T07:32:56;33.60;;;31.60;;
38994;SDS011;24769;18.712;99.000;2024-02-21T07:35:23;29.00;;;28.80;;
38994;SDS011;24769;18.712;99.000;2024-02-21T07:37:49;33.60;;;31.80;;
38994;SDS011;24769;18.712;99.000;2024-02-21T07:40:16;28.40;;;28.40;;
38994;SDS011;24769;18.712;99.000;2024-02-21T07:42:43;32.60;;;31.20;;
38994;SDS011;24769;18.712;99.000;2024-02-21T07:45:10;26.00;;;26.00;;
38994;SDS011;24769;18.712;99.000;2024-02-21T07:47:37;37.20;;;33.60;;
38994;SDS011;24769;18.712;99.000;2024-02-21T07:50:04;37.20;;;33.60;;
38994;SDS011;24769;18.712;99.000;2024-02-21T07:52:31;37.60;;;33.80;;
38994;SDS011;24769;18.712;99.000;2024-02-21T07:54:57;37.20;;;33.60;;
38994;SDS011;24769;18.712;99.000;2024-02-21T07:57:24;31.40;;;30.40;;
38994;SDS011;24769;18.712;99.000;2024-02-21T07:59:53;39.20;;;35.00;;
38994;SDS011;24769;18.712;99.000;2024-02-21T08:02:20;33.40;;;31.40;;
38994;SDS011;24769;18.712;99.000;2024-02-21T08:04:47;31.60;;;30.60;;
38994;SDS011;24769;18.712;99.000;2024-02-21T08:07:13;28.60;;;28.20;;
38994;SDS011;24769;18.712;99.000;2024-02-21T08:09:40;31.00;;;30.20;;
38994;SDS011;24769;18.712;99.000;2024-02-21T08:12:06;27.20;;;27.20;;
38994;SDS011;24769;18.712;99.000;2024-02-21T08:14:33;28.20;;;28.20;;
38994;SDS011;24769;18.712;99.000;2024-02-21T08:17:00;31.40;;;30.40;;
38994;SDS011;24769;18.712;99.000;2024-02-21T08:19:26;30.00;;;29.40;;
38994;SDS011;24769;18.712;99.000;2024-02-21T08:21:53;31.20;;;30.00;;
38994;SDS011;24769;18.712;99.000;2024-02-21T08:24:20;25.20;;;25.20;;
38994;SDS011;24769;18.712;99.000;2024-02-21T08:26:48;28.20;;;28.20;;
38994;SDS011;24769;18.712;99.000;2024-02-21T08:29:15;29.80;;;29.20;;
38994;SDS011;24769;18.712;99.000;2024-02-21T08:31:41;27.00;;;27.00;;
38994;SDS011;24769;18.712;99.000;2024-02-21T08:34:08;28.20;;;28.20;;
38994;SDS011;24769;18.712;99.000;2024-02-21T08:36:34;28.00;;;28.00;;
38994;SDS011;24769;18.712;99.000;2024-02-21T08:39:02;25.00;;;25.00;;
38994;SDS011;24769;18.712;99.000;2024-02-21T08:41:33;18.40;;;18.40;;
38994;SDS011;24769;18.712;99.000;2024-02-21T08:44:00;25.80;;;25.80;;
38994;SDS011;24769;18.712;99.000;2024-02-21T08:46:28;26.40;;;26.40;;
38994;SDS011;24769;18.712;99.000;2024-02-21T08:48:55;29.20;;;29.00;;
38994;SDS011;24769;18.712;99.000;2024-02-21T08:51:21;31.40;;;30.00;;
38994;SDS011;24769;18.712;99.000;2024-02-21T08:53:48;26.20;;;26.20;;
38994;SDS011;24769;18.712;99.000;2024-02-21T08:56:15;31.60;;;30.60;;
38994;SDS011;24769;18.712;99.000;2024-02-21T08:58:43;33.40;;;31.40;;
38994;SDS011;24769;18.712;99.000;2024-02-21T09:01:09;24.00;;;24.00;;
38994;SDS011;24769;18.712;99.000;2024-02-21T09:03:36;30.60;;;29.80;;
38994;SDS011;24769;18.712;99.000;2024-02-21T09:06:04;30.80;;;29.80;;
38994;SDS011;24769;18.712;99.000;2024-02-21T09:08:31;35.00;;;32.20;;
38994;SDS011;24769;18.712;99.000;2024-02-21T09:10:59;35.50;;;32.75;;
38994;SDS011;24769;18.712;99.000;2024-02-21T09:13:29;32.60;;;31.00;;
38994;SDS011;24769;18.712;99.000;2024-02-21T09:15:55;31.60;;;30.60;;
38994;SDS011;24769;18.712;99.000;2024-02-21T09:18:22;24.20;;;24.20;;
38994;SDS011;24769;18.712;99.000;2024-02-21T09:20:48;28.40;;;28.40;;
38994;SDS011;24769;18.712;99.000;2024-02-21T09:23:15;31.20;;;30.20;;
38994;SDS011;24769;18.712;99.000;2024-02-21T09:25:42;27.00;;;27.00;;
38994;SDS011;24769;18.712;99.000;2024-02-21T09:28:08;24.60;;;24.60;;
38994;SDS011;24769;18.712;99.000;2024-02-21T09:30:35;26.80;;;26.80;;
38994;SDS011;24769;18.712;99.000;2024-02-21T09:33:03;26.00;;;26.00;;
38994;SDS011;24769;18.712;99.000;2024-02-21T09:35:30;87.00;;;87.00;;
38994;SDS011;24769;18.712;99.000;2024-02-21T09:37:59;40.40;;;35.40;;
38994;SDS011;24769;18.712;99.000;2024-02-21T09:40:27;36.00;;;33.00;;
38994;SDS011;24769;18.712;99.000;2024-02-21T09:43:04;28.00;;;28.00;;
38994;SDS011;24769;18.712;99.000;2024-02-21T09:45:32;25.40;;;25.40;;
38994;SDS011;24769;18.712;99.000;2024-02-21T09:50:54;27.60;;;27.60;;
38994;SDS011;24769;18.712;99.000;2024-02-21T09:53:21;29.60;;;29.00;;
38994;SDS011;24769;18.712;99.000;2024-02-21T09:55:50;28.60;;;28.60;;
38994;SDS011;24769;18.712;99.000;2024-02-21T09:58:18;26.20;;;26.20;;
38994;SDS011;24769;18.712;99.000;2024-02-21T10:00:46;33.00;;;31.60;;
38994;SDS011;24769;18.712;99.000;2024-02-21T10:03:12;38.20;;;34.40;;
38994;SDS011;24769;18.712;99.000;2024-02-21T10:05:45;37.20;;;33.00;;
38994;SDS011;24769;18.712;99.000;2024-02-21T10:08:17;41.20;;;36.20;;
38994;SDS011;24769;18.712;99.000;2024-02-21T10:10:45;33.40;;;31.80;;
38994;SDS011;24769;18.712;99.000;2024-02-21T10:13:28;43.80;;;37.40;;
38994;SDS011;24769;18.712;99.000;2024-02-21T10:16:05;79.00;;;76.50;;
38994;SDS011;24769;18.712;99.000;2024-02-21T10:18:33;74.25;;;67.75;;
38994;SDS011;24769;18.712;99.000;2024-02-21T10:21:01;55.40;;;46.40;;
38994;SDS011;24769;18.712;99.000;2024-02-21T10:26:27;54.40;;;45.80;;
38994;SDS011;24769;18.712;99.000;2024-02-21T10:28:57;43.40;;;38.00;;
38994;SDS011;24769;18.712;99.000;2024-02-21T10:31:25;62.60;;;52.00;;
38994;SDS011;24769;18.712;99.000;2024-02-21T10:33:56;72.00;;;61.75;;
38994;SDS011;24769;18.712;99.000;2024-02-21T10:36:23;71.25;;;63.25;;
38994;SDS011;24769;18.712;99.000;2024-02-21T10:38:51;73.00;;;63.00;;
38994;SDS011;24769;18.712;99.000;2024-02-21T10:41:19;92.25;;;88.50;;
38994;SDS011;24769;18.712;99.000;2024-02-21T10:43:51;75.00;;;67.25;;
38994;SDS011;24769;18.712;99.000;2024-02-21T10:46:22;76.75;;;66.75;;
38994;SDS011;24769;18.712;99.000;2024-02-21T10:48:55;77.00;;;69.75;;
38994;SDS011;24769;18.712;99.000;2024-02-21T10:51:33;75.25;;;68.75;;
38994;SDS011;24769;18.712;99.000;2024-02-21T10:56:56;68.50;;;56.50;;
38994;SDS011;24769;18.712;99.000;2024-02-21T10:59:24;69.50;;;59.50;;
38994;SDS011;24769;18.712;99.000;2024-02-21T11:01:54;70.00;;;59.25;;
38994;SDS011;24769;18.712;99.000;2024-02-21T11:04:21;46.00;;;39.60;;
38994;SDS011;24769;18.712;99.000;2024-02-21T11:06:48;48.60;;;41.80;;
38994;SDS011;24769;18.712;99.000;2024-02-21T11:09:15;44.00;;;38.00;;
38994;SDS011;24769;18.712;99.000;2024-02-21T11:11:43;41.00;;;36.20;;
38994;SDS011;24769;18.712;99.000;2024-02-21T11:14:21;33.40;;;31.40;;
38994;SDS011;24769;18.712;99.000;2024-02-21T11:16:51;27.40;;;27.40;;
38994;SDS011;24769;18.712;99.000;2024-02-21T11:21:46;35.80;;;33.20;;
38994;SDS011;24769;18.712;99.000;2024-02-21T11:24:13;34.40;;;32.40;;
38994;SDS011;24769;18.712;99.000;2024-02-21T11:26:50;32.60;;;31.60;;
38994;SDS011;24769;18.712;99.000;2024-02-21T11:29:22;31.40;;;30.00;;
38994;SDS011;24769;18.712;99.000;2024-02-21T11:31:50;27.60;;;27.60;;
38994;SDS011;24769;18.712;99.000;2024-02-21T11:34:18;33.80;;;32.20;;
38994;SDS011;24769;18.712;99.000;2024-02-21T11:39:19;30.20;;;30.00;;
38994;SDS011;24769;18.712;99.000;2024-02-21T11:42:00;43.50;;;38.00;;
38994;SDS011;24769;18.712;99.000;2024-02-21T11:44:31;62.75;;;52.25;;
38994;SDS011;24769;18.712;99.000;2024-02-21T11:46:58;48.25;;;41.00;;
38994;SDS011;24769;18.712;99.000;2024-02-21T11:49:25;35.20;;;32.80;;
38994;SDS011;24769;18.712;99.000;2024-02-21T11:51:59;38.50;;;35.00;;
38994;SDS011;24769;18.712;99.000;2024-02-21T11:54:32;45.25;;;38.75;;
38994;SDS011;24769;18.712;99.000;2024-02-21T11:57:00;49.00;;;42.25;;
38994;SDS011;24769;18.712;99.000;2024-02-21T11:59:32;51.25;;;43.25;;
38994;SDS011;24769;18.712;99.000;2024-02-21T12:02:00;64.25;;;52.25;;
38994;SDS011;24769;18.712;99.000;2024-02-21T12:04:30;56.75;;;47.50;;
38994;SDS011;24769;18.712;99.000;2024-02-21T12:06:57;59.75;;;49.50;;
38994;SDS011;24769;18.712;99.000;2024-02-21T12:09:24;72.50;;;61.25;;
38994;SDS011;24769;18.712;99.000;2024-02-21T12:12:02;58.25;;;48.50;;
38994;SDS011;24769;18.712;99.000;2024-02-21T12:14:30;57.00;;;47.75;;
38994;SDS011;24769;18.712;99.000;2024-02-21T12:16:58;54.00;;;45.75;;
38994;SDS011;24769;18.712;99.000;2024-02-21T12:19:28;60.50;;;50.75;;
38994;SDS011;24769;18.712;99.000;2024-02-21T12:22:00;49.75;;;42.75;;
38994;SDS011;24769;18.712;99.000;2024-02-21T12:24:31;53.00;;;45.00;;
38994;SDS011;24769;18.712;99.000;2024-02-21T12:26:57;55.50;;;46.00;;
38994;SDS011;24769;18.712;99.000;2024-02-21T12:29:25;51.50;;;44.00;;
38994;SDS011;24769;18.712;99.000;2024-02-21T12:31:51;54.25;;;45.50;;
38994;SDS011;24769;18.712;99.000;2024-02-21T12:34:20;57.75;;;48.00;;
38994;SDS011;24769;18.712;99.000;2024-02-21T12:36:59;59.25;;;48.25;;
38994;SDS011;24769;18.712;99.000;2024-02-21T12:39:25;65.50;;;53.50;;
38994;SDS011;24769;18.712;99.000;2024-02-21T12:41:55;64.25;;;51.00;;
38994;SDS011;24769;18.712;99.000;2024-02-21T12:44:22;65.00;;;53.50;;
38994;SDS011;24769;18.712;99.000;2024-02-21T12:46:49;59.25;;;49.00;;
38994;SDS011;24769;18.712;99.000;2024-02-21T12:49:19;56.75;;;45.75;;
38994;SDS011;24769;18.712;99.000;2024-02-21T12:51:45;60.00;;;48.50;;
38994;SDS011;24769;18.712;99.000;2024-02-21T12:54:12;55.25;;;46.25;;
38994;SDS011;24769;18.712;99.000;2024-02-21T12:56:39;58.00;;;46.50;;
38994;SDS011;24769;18.712;99.000;2024-02-21T12:59:06;59.00;;;48.25;;
38994;SDS011;24769;18.712;99.000;2024-02-21T13:01:35;56.50;;;47.25;;
38994;SDS011;24769;18.712;99.000;2024-02-21T13:04:05;60.00;;;49.50;;
38994;SDS011;24769;18.712;99.000;2024-02-21T13:06:32;60.75;;;48.50;;
38994;SDS011;24769;18.712;99.000;2024-02-21T13:08:59;63.75;;;52.50;;
38994;SDS011;24769;18.712;99.000;2024-02-21T13:11:29;59.75;;;49.25;;
38994;SDS011;24769;18.712;99.000;2024-02-21T13:13:56;61.75;;;49.25;;
38994;SDS011;24769;18.712;99.000;2024-02-21T13:16:23;66.25;;;54.25;;
38994;SDS011;24769;18.712;99.000;2024-02-21T13:18:51;59.25;;;49.25;;
38994;SDS011;24769;18.712;99.000;2024-02-21T13:21:18;56.50;;;46.75;;
38994;SDS011;24769;18.712;99.000;2024-02-21T13:23:44;59.25;;;49.00;;
38994;SDS011;24769;18.712;99.000;2024-02-21T13:26:11;57.75;;;48.50;;
38994;SDS011;24769;18.712;99.000;2024-02-21T13:28:38;55.00;;;45.50;;
38994;SDS011;24769;18.712;99.000;2024-02-21T13:31:05;53.25;;;44.50;;
38994;SDS011;24769;18.712;99.000;2024-02-21T13:33:31;51.50;;;43.50;;
38994;SDS011;24769;18.712;99.000;2024-02-21T13:35:58;52.25;;;43.50;;
38994;SDS011;24769;18.712;99.000;2024-02-21T13:38:24;50.50;;;42.00;;
38994;SDS011;24769;18.712;99.000;2024-02-21T13:40:52;49.25;;;41.50;;
38994;SDS011;24769;18.712;99.000;2024-02-21T13:43:19;52.25;;;43.50;;
38994;SDS011;24769;18.712;99.000;2024-02-21T13:45:55;50.00;;;40.75;;
38994;SDS011;24769;18.712;99.000;2024-02-21T13:48:26;47.25;;;39.50;;
38994;SDS011;24769;18.712;99.000;2024-02-21T13:50:54;49.50;;;41.75;;
38994;SDS011;24769;18.712;99.000;2024-02-21T13:53:21;48.50;;;41.50;;
38994;SDS011;24769;18.712;99.000;2024-02-21T13:55:48;48.50;;;41.25;;
38994;SDS011;24769;18.712;99.000;2024-02-21T13:58:15;49.25;;;41.25;;
38994;SDS011;24769;18.712;99.000;2024-02-21T14:00:42;45.00;;;39.25;;
38994;SDS011;24769;18.712;99.000;2024-02-21T14:03:09;49.25;;;41.25;;
38994;SDS011;24769;18.712;99.000;2024-02-21T14:05:36;49.25;;;41.50;;
38994;SDS011;24769;18.712;99.000;2024-02-21T14:08:02;53.75;;;45.75;;
38994;SDS011;24769;18.712;99.000;2024-02-21T14:10:30;50.00;;;42.00;;
38994;SDS011;24769;18.712;99.000;2024-02-21T14:12:57;49.25;;;42.00;;
38994;SDS011;24769;18.712;99.000;2024-02-21T14:15:24;49.25;;;41.50;;
38994;SDS011;24769;18.712;99.000;2024-02-21T14:17:50;51.50;;;43.00;;
38994;SDS011;24769;18.712;99.000;2024-02-21T14:20:17;50.50;;;42.00;;
38994;SDS011;24769;18.712;99.000;2024-02-21T14:22:44;51.50;;;43.25;;
38994;SDS011;24769;18.712;99.000;2024-02-21T14:25:10;51.50;;;43.25;;
38994;SDS011;24769;18.712;99.000;2024-02-21T14:27:37;53.25;;;45.75;;
38994;SDS011;24769;18.712;99.000;2024-02-21T14:30:04;49.00;;;41.50;;
38994;SDS011;24769;18.712;99.000;2024-02-21T14:32:32;49.75;;;42.25;;